Time;durP1;ratioP1;P1;durP2;ratioP2;P2;SDS_P1;SDS_P2;PMS_P1;PMS_P2;Temp;Humidity;BMP_temperature;BMP_pressure;BME280_temperature;BME280_humidity;BME280_pressure;Samples;Min_cycle;Max_cycle;Signal;HPM_P1;HPM_P2
2024/01/28 00:00:16;;;;;;;14.27;9.63;;;;;;;;;;5060489;27;99759;-73
2024/01/28 00:02:43;;;;;;;18.30;8.73;;;;;;;;;;5059159;27;98798;-73
2024/01/28 00:05:13;;;;;;;14.38;7.93;;;;;;;;;;5058580;27;99919;-74
2024/01/28 00:07:39;;;;;;;19.52;9.77;;;;;;;;;;5057746;27;98378;-73
2024/01/28 00:10:07;;;;;;;15.75;9.07;;;;;;;;;;5062420;27;99445;-73
2024/01/28 00:12:33;;;;;;;18.52;8.70;;;;;;;;;;5058834;27;99161;-74
2024/01/28 00:15:00;;;;;;;14.80;10.07;;;;;;;;;;5059184;27;99810;-73
2024/01/28 00:17:27;;;;;;;18.42;9.77;;;;;;;;;;5058171;27;99038;-74
2024/01/28 00:19:53;;;;;;;17.88;9.82;;;;;;;;;;5063069;27;100132;-74
2024/01/28 00:22:20;;;;;;;17.10;7.95;;;;;;;;;;5058919;27;99704;-74
2024/01/28 00:24:47;;;;;;;19.27;9.52;;;;;;;;;;5057750;27;98949;-74
2024/01/28 00:27:13;;;;;;;14.40;9.93;;;;;;;;;;5059085;27;99702;-74
2024/01/28 00:29:40;;;;;;;14.40;8.63;;;;;;;;;;5060263;27;99347;-74
2024/01/28 00:32:06;;;;;;;13.70;8.60;;;;;;;;;;5060516;27;99042;-73
2024/01/28 00:34:33;;;;;;;18.77;10.07;;;;;;;;;;5059188;27;99680;-74
2024/01/28 00:37:02;;;;;;;20.30;10.38;;;;;;;;;;5058783;27;99873;-74
2024/01/28 00:39:29;;;;;;;25.00;9.45;;;;;;;;;;5059483;27;98670;-74
2024/01/28 00:41:56;;;;;;;15.75;7.70;;;;;;;;;;5059370;27;99839;-75
2024/01/28 00:44:22;;;;;;;17.63;8.93;;;;;;;;;;5058057;27;99870;-74
2024/01/28 00:46:49;;;;;;;16.13;8.95;;;;;;;;;;5058410;27;99576;-73
2024/01/28 00:49:15;;;;;;;12.40;8.52;;;;;;;;;;5057363;27;99387;-74
2024/01/28 00:51:42;;;;;;;17.33;8.93;;;;;;;;;;5060922;27;99816;-74
2024/01/28 00:54:09;;;;;;;33.75;9.10;;;;;;;;;;5056493;27;99488;-74
2024/01/28 00:56:35;;;;;;;13.18;8.52;;;;;;;;;;5060993;27;100002;-74
2024/01/28 00:59:02;;;;;;;17.80;9.32;;;;;;;;;;5058841;27;100184;-74
2024/01/28 01:01:28;;;;;;;19.17;9.13;;;;;;;;;;5058612;27;99713;-73
2024/01/28 01:03:55;;;;;;;12.68;8.40;;;;;;;;;;5058194;27;100266;-73
2024/01/28 01:06:21;;;;;;;16.55;9.02;;;;;;;;;;5059243;27;99760;-74
2024/01/28 01:08:48;;;;;;;13.77;9.05;;;;;;;;;;5058154;27;99989;-74
2024/01/28 01:11:14;;;;;;;10.25;9.10;;;;;;;;;;5059702;27;99817;-74
2024/01/28 01:13:41;;;;;;;13.18;9.30;;;;;;;;;;5063901;27;98728;-74
2024/01/28 01:16:07;;;;;;;13.57;8.30;;;;;;;;;;5058611;27;99652;-73
2024/01/28 01:18:34;;;;;;;21.58;9.43;;;;;;;;;;5060065;27;99148;-74
2024/01/28 01:21:00;;;;;;;16.70;8.95;;;;;;;;;;5060991;27;98949;-74
2024/01/28 01:23:27;;;;;;;10.57;8.45;;;;;;;;;;5057190;27;99134;-74
2024/01/28 01:25:53;;;;;;;18.63;9.00;;;;;;;;;;5057643;27;99495;-73
2024/01/28 01:28:19;;;;;;;18.25;9.77;;;;;;;;;;5054354;27;99020;-73
2024/01/28 01:30:46;;;;;;;10.98;8.13;;;;;;;;;;5061773;27;99977;-74
2024/01/28 01:33:13;;;;;;;13.43;8.63;;;;;;;;;;5058998;27;98309;-74
2024/01/28 01:35:40;;;;;;;24.23;9.25;;;;;;;;;;5060224;27;99857;-73
2024/01/28 01:38:06;;;;;;;19.92;8.98;;;;;;;;;;5056662;27;98542;-74
2024/01/28 01:40:33;;;;;;;16.77;8.82;;;;;;;;;;5058199;27;99618;-74
2024/01/28 01:42:59;;;;;;;12.80;8.30;;;;;;;;;;5055332;27;101617;-74
2024/01/28 01:45:25;;;;;;;24.63;10.13;;;;;;;;;;5057043;27;98316;-74
2024/01/28 01:47:52;;;;;;;13.52;8.15;;;;;;;;;;5056081;27;100357;-74
2024/01/28 01:50:19;;;;;;;17.17;9.40;;;;;;;;;;5054934;27;99257;-74
2024/01/28 01:52:45;;;;;;;12.65;8.63;;;;;;;;;;5057305;27;99147;-73
2024/01/28 01:55:12;;;;;;;12.52;7.63;;;;;;;;;;5057445;27;99603;-73
2024/01/28 01:57:39;;;;;;;15.15;9.02;;;;;;;;;;5061304;27;99931;-73
2024/01/28 02:00:06;;;;;;;13.82;8.50;;;;;;;;;;5056789;27;99475;-73
2024/01/28 02:02:33;;;;;;;16.23;8.05;;;;;;;;;;5057658;27;101210;-73
2024/01/28 02:04:59;;;;;;;15.02;8.70;;;;;;;;;;5054813;27;99441;-73
2024/01/28 02:07:26;;;;;;;16.38;8.43;;;;;;;;;;5059552;27;99311;-73
2024/01/28 02:09:53;;;;;;;13.65;8.00;;;;;;;;;;5055890;27;100216;-73
2024/01/28 02:12:19;;;;;;;11.10;7.63;;;;;;;;;;5057437;27;99794;-73
2024/01/28 02:14:46;;;;;;;16.35;8.30;;;;;;;;;;5057856;27;99659;-73
2024/01/28 02:17:12;;;;;;;18.52;8.63;;;;;;;;;;5055728;27;99927;-73
2024/01/28 02:19:39;;;;;;;11.07;8.10;;;;;;;;;;5060863;27;99008;-73
2024/01/28 02:22:05;;;;;;;21.65;8.38;;;;;;;;;;5056112;27;99344;-73
2024/01/28 02:24:32;;;;;;;16.58;9.25;;;;;;;;;;5055234;27;98715;-73
2024/01/28 02:26:58;;;;;;;12.20;8.00;;;;;;;;;;5056924;27;99853;-73
2024/01/28 02:29:25;;;;;;;11.75;7.15;;;;;;;;;;5056688;27;99962;-73
2024/01/28 02:31:51;;;;;;;10.88;7.65;;;;;;;;;;5055783;27;99421;-73
2024/01/28 02:34:18;;;;;;;15.32;7.00;;;;;;;;;;5057070;27;99349;-73
2024/01/28 02:36:44;;;;;;;10.32;6.68;;;;;;;;;;5055450;27;99256;-73
2024/01/28 02:39:11;;;;;;;12.07;7.85;;;;;;;;;;5060161;27;99389;-73
2024/01/28 02:41:38;;;;;;;8.05;6.45;;;;;;;;;;5054598;27;99313;-74
2024/01/28 02:44:04;;;;;;;10.70;6.45;;;;;;;;;;5056276;27;99047;-73
2024/01/28 02:46:30;;;;;;;11.32;8.18;;;;;;;;;;5055524;27;99558;-73
2024/01/28 02:48:57;;;;;;;12.32;7.88;;;;;;;;;;5054536;27;100052;-73
2024/01/28 02:51:23;;;;;;;15.48;7.38;;;;;;;;;;5059003;27;98491;-73
2024/01/28 02:53:50;;;;;;;26.17;7.20;;;;;;;;;;5055854;27;98926;-73
2024/01/28 02:56:16;;;;;;;23.05;7.75;;;;;;;;;;5056951;27;99568;-73
2024/01/28 02:58:43;;;;;;;9.38;6.78;;;;;;;;;;5057015;27;98199;-73
2024/01/28 03:01:09;;;;;;;21.38;7.28;;;;;;;;;;5056546;27;99921;-73
2024/01/28 03:03:36;;;;;;;12.35;7.55;;;;;;;;;;5055854;27;98414;-73
2024/01/28 03:06:03;;;;;;;15.80;7.97;;;;;;;;;;5054069;27;100776;-72
2024/01/28 03:08:30;;;;;;;11.77;8.10;;;;;;;;;;5054443;27;99059;-73
2024/01/28 03:10:57;;;;;;;12.32;7.63;;;;;;;;;;5054526;27;99439;-73
2024/01/28 03:13:23;;;;;;;7.80;7.00;;;;;;;;;;5053673;27;99801;-73
2024/01/28 03:15:52;;;;;;;16.95;8.32;;;;;;;;;;5056462;27;99996;-73
2024/01/28 03:18:18;;;;;;;15.38;7.05;;;;;;;;;;5056120;27;99325;-73
2024/01/28 03:20:45;;;;;;;14.73;7.35;;;;;;;;;;5055693;27;99819;-73
2024/01/28 03:23:11;;;;;;;9.25;7.15;;;;;;;;;;5057413;27;100027;-74
2024/01/28 03:25:38;;;;;;;11.07;6.80;;;;;;;;;;5054734;27;99384;-73
2024/01/28 03:28:05;;;;;;;12.93;7.05;;;;;;;;;;5054869;27;100233;-74
2024/01/28 03:30:32;;;;;;;20.40;7.63;;;;;;;;;;5054761;27;98935;-73
2024/01/28 03:32:58;;;;;;;12.93;7.25;;;;;;;;;;5056082;27;99579;-74
2024/01/28 03:35:25;;;;;;;10.32;7.30;;;;;;;;;;5053986;27;98916;-73
2024/01/28 03:37:51;;;;;;;16.23;7.55;;;;;;;;;;5057241;27;99413;-73
2024/01/28 03:40:18;;;;;;;17.83;8.38;;;;;;;;;;5054204;27;99486;-73
2024/01/28 03:42:44;;;;;;;8.77;6.45;;;;;;;;;;5053846;27;99740;-73
2024/01/28 03:45:11;;;;;;;17.33;8.10;;;;;;;;;;5058166;27;99894;-74
2024/01/28 03:47:37;;;;;;;17.73;6.88;;;;;;;;;;5057832;27;99350;-73
2024/01/28 03:50:04;;;;;;;18.63;7.60;;;;;;;;;;5055169;27;98343;-73
2024/01/28 03:52:31;;;;;;;17.40;6.70;;;;;;;;;;5057249;27;101447;-74
2024/01/28 03:54:57;;;;;;;13.73;7.70;;;;;;;;;;5053778;27;100133;-73
2024/01/28 03:57:24;;;;;;;19.02;7.10;;;;;;;;;;5053156;27;99530;-74
2024/01/28 03:59:50;;;;;;;8.90;6.57;;;;;;;;;;5055501;27;99206;-74
2024/01/28 04:02:17;;;;;;;10.27;6.30;;;;;;;;;;5056973;27;100124;-73
2024/01/28 04:04:44;;;;;;;12.98;6.70;;;;;;;;;;5054229;27;99516;-74
2024/01/28 04:07:11;;;;;;;11.63;6.43;;;;;;;;;;5060070;27;99613;-73
2024/01/28 04:09:37;;;;;;;7.95;6.50;;;;;;;;;;5052621;27;99460;-73
2024/01/28 04:12:04;;;;;;;18.08;7.47;;;;;;;;;;5056591;27;99784;-74
2024/01/28 04:14:31;;;;;;;14.52;6.55;;;;;;;;;;5059640;27;99857;-73
2024/01/28 04:16:57;;;;;;;16.27;7.10;;;;;;;;;;5056987;27;99973;-74
2024/01/28 04:19:24;;;;;;;10.25;6.40;;;;;;;;;;5060401;27;99674;-74
2024/01/28 04:21:50;;;;;;;9.70;6.72;;;;;;;;;;5058722;27;100208;-73
2024/01/28 04:24:17;;;;;;;7.68;6.32;;;;;;;;;;5058511;27;99846;-73
2024/01/28 04:26:43;;;;;;;18.70;7.22;;;;;;;;;;5059015;27;99751;-73
2024/01/28 04:29:10;;;;;;;10.90;6.47;;;;;;;;;;5062898;27;99855;-73
2024/01/28 04:31:41;;;;;;;17.88;7.22;;;;;;;;;;5058923;27;99982;-74
2024/01/28 04:34:07;;;;;;;14.43;7.03;;;;;;;;;;5059461;27;100780;-74
2024/01/28 04:36:34;;;;;;;17.20;6.68;;;;;;;;;;5061307;27;99723;-74
2024/01/28 04:39:00;;;;;;;14.52;6.22;;;;;;;;;;5059438;27;100725;-73
2024/01/28 04:41:27;;;;;;;13.00;6.55;;;;;;;;;;5059304;27;99746;-74
2024/01/28 04:43:53;;;;;;;14.55;6.72;;;;;;;;;;5056087;27;99533;-74
2024/01/28 04:46:20;;;;;;;8.70;6.32;;;;;;;;;;5057658;27;100102;-74
2024/01/28 04:48:46;;;;;;;7.05;6.30;;;;;;;;;;5061568;27;99762;-74
2024/01/28 04:51:13;;;;;;;11.85;6.38;;;;;;;;;;5060330;27;100060;-74
2024/01/28 04:53:39;;;;;;;19.40;6.70;;;;;;;;;;5057913;27;100144;-74
2024/01/28 04:56:06;;;;;;;9.63;5.65;;;;;;;;;;5060550;27;98272;-74
2024/01/28 04:58:32;;;;;;;17.63;5.63;;;;;;;;;;5061007;27;99569;-74
2024/01/28 05:00:59;;;;;;;17.25;5.68;;;;;;;;;;5059718;27;100510;-74
2024/01/28 05:03:25;;;;;;;12.05;7.32;;;;;;;;;;5054952;27;98932;-74
2024/01/28 05:05:52;;;;;;;9.43;5.47;;;;;;;;;;5057387;27;98819;-73
2024/01/28 05:08:19;;;;;;;11.02;6.88;;;;;;;;;;5059131;27;99809;-73
2024/01/28 05:10:45;;;;;;;21.20;6.97;;;;;;;;;;5060408;27;98404;-74
2024/01/28 05:13:12;;;;;;;12.05;6.82;;;;;;;;;;5059861;27;100368;-73
2024/01/28 05:15:38;;;;;;;17.00;6.47;;;;;;;;;;5058696;27;99194;-73
2024/01/28 05:18:05;;;;;;;10.43;6.00;;;;;;;;;;5059071;27;99861;-73
2024/01/28 05:20:32;;;;;;;19.33;6.97;;;;;;;;;;5055518;27;100170;-74
2024/01/28 05:22:59;;;;;;;6.70;5.78;;;;;;;;;;5058533;27;100451;-73
2024/01/28 05:25:26;;;;;;;8.85;7.05;;;;;;;;;;5059597;27;99927;-73
2024/01/28 05:27:53;;;;;;;11.85;6.13;;;;;;;;;;5055897;27;99006;-73
2024/01/28 05:30:20;;;;;;;22.25;6.75;;;;;;;;;;5059952;27;99750;-73
2024/01/28 05:32:47;;;;;;;9.75;6.82;;;;;;;;;;5061019;27;99540;-73
2024/01/28 05:35:14;;;;;;;16.70;6.30;;;;;;;;;;5054760;27;99045;-73
2024/01/28 05:37:41;;;;;;;23.40;7.88;;;;;;;;;;5058596;27;99976;-73
2024/01/28 05:40:10;;;;;;;17.30;6.10;;;;;;;;;;5057298;27;99083;-73
2024/01/28 05:42:37;;;;;;;19.65;5.93;;;;;;;;;;5056789;27;99721;-73
2024/01/28 05:45:03;;;;;;;11.00;6.40;;;;;;;;;;5055930;27;99868;-73
2024/01/28 05:47:30;;;;;;;12.18;6.28;;;;;;;;;;5058140;27;99962;-72
2024/01/28 05:49:56;;;;;;;16.88;5.35;;;;;;;;;;5057840;27;98781;-73
2024/01/28 05:52:23;;;;;;;8.63;5.90;;;;;;;;;;5056594;27;99584;-73
2024/01/28 05:54:49;;;;;;;8.45;6.05;;;;;;;;;;5062686;27;100194;-72
2024/01/28 05:57:16;;;;;;;18.63;6.93;;;;;;;;;;5056786;27;99236;-73
2024/01/28 05:59:42;;;;;;;15.38;5.90;;;;;;;;;;5057978;27;99964;-73
2024/01/28 06:02:09;;;;;;;9.40;6.03;;;;;;;;;;5057486;27;100085;-73
2024/01/28 06:04:35;;;;;;;11.25;6.90;;;;;;;;;;5055452;27;99092;-72
2024/01/28 06:07:02;;;;;;;22.23;7.65;;;;;;;;;;5055823;27;100207;-73
2024/01/28 06:09:28;;;;;;;8.93;5.93;;;;;;;;;;5057813;27;98565;-73
2024/01/28 06:11:55;;;;;;;11.10;5.50;;;;;;;;;;5060748;27;100258;-73
2024/01/28 06:14:23;;;;;;;10.23;5.45;;;;;;;;;;5059410;27;100439;-74
2024/01/28 06:16:50;;;;;;;10.07;5.65;;;;;;;;;;5056754;27;99701;-73
2024/01/28 06:19:16;;;;;;;10.27;6.88;;;;;;;;;;5056907;27;100051;-73
2024/01/28 06:21:44;;;;;;;6.75;5.75;;;;;;;;;;5056759;27;99884;-73
2024/01/28 06:24:11;;;;;;;8.43;5.93;;;;;;;;;;5054362;27;100104;-73
2024/01/28 06:26:39;;;;;;;10.00;5.40;;;;;;;;;;5054881;27;98944;-73
2024/01/28 06:29:05;;;;;;;10.85;5.90;;;;;;;;;;5052768;27;99354;-72
2024/01/28 06:31:32;;;;;;;10.20;5.57;;;;;;;;;;5059364;27;99843;-73
2024/01/28 06:33:58;;;;;;;17.40;5.75;;;;;;;;;;5056904;27;99939;-73
2024/01/28 06:36:25;;;;;;;9.07;5.60;;;;;;;;;;5057657;27;98309;-73
2024/01/28 06:38:52;;;;;;;12.45;5.18;;;;;;;;;;5058988;27;99698;-73
2024/01/28 06:41:18;;;;;;;6.57;5.93;;;;;;;;;;5056374;27;99582;-73
2024/01/28 06:43:44;;;;;;;6.00;5.40;;;;;;;;;;5060621;27;99328;-72
2024/01/28 06:46:16;;;;;;;9.80;5.75;;;;;;;;;;5054123;27;100211;-74
2024/01/28 06:48:42;;;;;;;9.45;4.63;;;;;;;;;;5058093;27;98744;-72
2024/01/28 06:51:09;;;;;;;13.55;7.00;;;;;;;;;;5057242;27;100328;-73
2024/01/28 06:53:36;;;;;;;11.52;6.75;;;;;;;;;;5058082;27;100249;-73
2024/01/28 06:56:03;;;;;;;5.22;4.72;;;;;;;;;;5056131;27;98455;-73
2024/01/28 06:58:29;;;;;;;9.43;5.88;;;;;;;;;;5063048;27;99843;-72
2024/01/28 07:00:56;;;;;;;15.80;5.47;;;;;;;;;;5061331;27;98644;-73
2024/01/28 07:03:24;;;;;;;14.25;6.05;;;;;;;;;;5062875;27;99548;-73
2024/01/28 07:05:51;;;;;;;22.98;6.53;;;;;;;;;;5055746;27;101506;-73
2024/01/28 07:08:17;;;;;;;8.75;5.85;;;;;;;;;;5057759;27;99176;-73
2024/01/28 07:10:43;;;;;;;16.20;6.15;;;;;;;;;;5060561;27;99190;-73
2024/01/28 07:13:10;;;;;;;6.63;5.75;;;;;;;;;;5057209;27;99998;-73
2024/01/28 07:15:37;;;;;;;10.68;7.25;;;;;;;;;;5059872;27;99082;-73
2024/01/28 07:18:03;;;;;;;9.98;5.72;;;;;;;;;;5058509;27;100417;-73
2024/01/28 07:20:31;;;;;;;18.98;6.22;;;;;;;;;;5056989;27;99377;-73
2024/01/28 07:22:57;;;;;;;9.50;6.90;;;;;;;;;;5056594;27;99046;-73
2024/01/28 07:25:24;;;;;;;14.88;7.20;;;;;;;;;;5057211;27;100033;-73
2024/01/28 07:27:52;;;;;;;11.77;5.80;;;;;;;;;;5058640;27;98659;-73
2024/01/28 07:30:18;;;;;;;10.55;5.78;;;;;;;;;;5058033;27;99627;-74
2024/01/28 07:32:45;;;;;;;9.07;6.85;;;;;;;;;;5061109;27;100040;-73
2024/01/28 07:35:11;;;;;;;9.75;6.95;;;;;;;;;;5057186;27;99715;-73
2024/01/28 07:37:38;;;;;;;10.70;5.80;;;;;;;;;;5059942;27;100119;-73
2024/01/28 07:40:04;;;;;;;8.30;5.63;;;;;;;;;;5054927;27;99954;-74
2024/01/28 07:42:31;;;;;;;11.32;5.80;;;;;;;;;;5061512;27;99085;-74
2024/01/28 07:44:57;;;;;;;7.97;5.30;;;;;;;;;;5056695;27;100699;-73
2024/01/28 07:47:24;;;;;;;15.50;7.10;;;;;;;;;;5058506;27;98473;-73
2024/01/28 07:49:50;;;;;;;9.65;6.82;;;;;;;;;;5061234;27;99390;-73
2024/01/28 07:52:17;;;;;;;9.00;5.85;;;;;;;;;;5060930;27;100167;-74
2024/01/28 07:54:44;;;;;;;10.50;5.88;;;;;;;;;;5062765;27;99835;-73
2024/01/28 07:57:10;;;;;;;12.98;6.28;;;;;;;;;;5060920;27;100041;-74
2024/01/28 07:59:37;;;;;;;8.48;6.28;;;;;;;;;;5058156;27;100039;-73
2024/01/28 08:02:03;;;;;;;13.75;6.18;;;;;;;;;;5063151;27;99896;-73
2024/01/28 08:04:30;;;;;;;9.32;5.63;;;;;;;;;;5059540;27;99731;-74
2024/01/28 08:06:56;;;;;;;13.38;6.00;;;;;;;;;;5061681;27;99853;-73
2024/01/28 08:09:23;;;;;;;7.93;5.35;;;;;;;;;;5062750;27;101230;-72
2024/01/28 08:11:49;;;;;;;10.98;6.15;;;;;;;;;;5061555;27;99843;-74
2024/01/28 08:14:15;;;;;;;6.93;5.68;;;;;;;;;;5056095;27;98267;-73
2024/01/28 08:16:42;;;;;;;8.98;5.32;;;;;;;;;;5076279;27;99429;-73
2024/01/28 08:19:08;;;;;;;8.38;6.30;;;;;;;;;;5087507;27;99216;-73
2024/01/28 08:21:35;;;;;;;14.52;6.18;;;;;;;;;;5067359;27;98282;-73
2024/01/28 08:24:02;;;;;;;9.75;5.82;;;;;;;;;;5062146;27;99398;-74
2024/01/28 08:26:28;;;;;;;8.63;5.75;;;;;;;;;;5068207;27;99077;-73
2024/01/28 08:28:56;;;;;;;13.35;6.40;;;;;;;;;;5058076;27;99149;-73
2024/01/28 08:31:23;;;;;;;6.80;5.55;;;;;;;;;;5061745;27;99489;-73
2024/01/28 08:33:49;;;;;;;6.60;5.75;;;;;;;;;;5066438;27;99119;-73
2024/01/28 08:36:16;;;;;;;7.47;4.82;;;;;;;;;;5067308;27;100166;-73
2024/01/28 08:38:42;;;;;;;5.93;5.13;;;;;;;;;;5067534;27;99824;-73
2024/01/28 08:41:09;;;;;;;8.48;6.05;;;;;;;;;;5061659;27;98431;-74
2024/01/28 08:43:35;;;;;;;12.63;6.05;;;;;;;;;;5058554;27;100113;-74
2024/01/28 08:46:03;;;;;;;8.10;6.35;;;;;;;;;;5062447;27;100479;-74
2024/01/28 08:48:30;;;;;;;7.63;6.28;;;;;;;;;;5061545;27;99944;-73
2024/01/28 08:50:57;;;;;;;13.05;6.45;;;;;;;;;;5063015;27;100166;-73
2024/01/28 08:53:23;;;;;;;8.80;5.38;;;;;;;;;;5064477;27;98986;-73
2024/01/28 08:55:49;;;;;;;7.00;5.65;;;;;;;;;;5064670;27;99386;-74
2024/01/28 08:58:16;;;;;;;6.75;5.18;;;;;;;;;;5058948;27;100032;-73
2024/01/28 09:00:42;;;;;;;14.05;5.75;;;;;;;;;;5065008;27;98421;-73
2024/01/28 09:03:09;;;;;;;11.30;6.03;;;;;;;;;;5062527;27;99405;-73
2024/01/28 09:05:35;;;;;;;5.82;5.25;;;;;;;;;;5063755;27;99876;-73
2024/01/28 09:08:03;;;;;;;16.00;6.03;;;;;;;;;;5069020;27;98412;-73
2024/01/28 09:10:29;;;;;;;7.72;5.07;;;;;;;;;;5066635;27;100010;-73
2024/01/28 09:12:55;;;;;;;10.75;5.53;;;;;;;;;;5066657;27;98228;-74
2024/01/28 09:15:23;;;;;;;7.47;5.00;;;;;;;;;;5065830;27;99394;-73
2024/01/28 09:17:50;;;;;;;8.15;6.03;;;;;;;;;;5063360;27;100128;-73
2024/01/28 09:20:16;;;;;;;7.32;5.10;;;;;;;;;;5060342;27;98392;-73
2024/01/28 09:22:43;;;;;;;13.38;6.22;;;;;;;;;;5058537;27;99678;-73
2024/01/28 09:25:09;;;;;;;13.73;5.78;;;;;;;;;;5062754;27;99995;-73
2024/01/28 09:27:36;;;;;;;7.40;4.70;;;;;;;;;;5060378;27;98745;-72
2024/01/28 09:30:02;;;;;;;10.77;5.00;;;;;;;;;;5069106;27;99621;-75
2024/01/28 09:32:29;;;;;;;16.08;6.53;;;;;;;;;;5067095;27;98288;-75
2024/01/28 09:34:56;;;;;;;5.30;4.75;;;;;;;;;;5066777;27;100132;-75
2024/01/28 09:37:23;;;;;;;7.80;5.95;;;;;;;;;;5064771;27;100381;-75
2024/01/28 09:39:49;;;;;;;8.20;5.15;;;;;;;;;;5067112;27;98262;-75
2024/01/28 09:42:23;;;;;;;8.55;5.10;;;;;;;;;;5065535;27;98609;-75
2024/01/28 09:44:50;;;;;;;6.10;4.13;;;;;;;;;;5063147;27;99797;-75
2024/01/28 09:47:19;;;;;;;11.45;5.68;;;;;;;;;;5027926;27;98402;-75
2024/01/28 09:49:46;;;;;;;5.70;4.70;;;;;;;;;;5048569;27;99354;-75
2024/01/28 09:52:13;;;;;;;10.10;4.75;;;;;;;;;;5050608;27;100211;-75
2024/01/28 09:54:41;;;;;;;7.57;4.75;;;;;;;;;;5046750;27;99286;-74
2024/01/28 09:57:08;;;;;;;6.72;4.65;;;;;;;;;;5046777;27;100361;-75
2024/01/28 09:59:35;;;;;;;9.10;4.43;;;;;;;;;;5055678;27;98267;-75
2024/01/28 10:02:03;;;;;;;8.75;4.93;;;;;;;;;;5065201;27;99492;-74
2024/01/28 10:04:30;;;;;;;8.77;5.65;;;;;;;;;;5067754;27;99630;-74
2024/01/28 10:06:57;;;;;;;9.68;5.22;;;;;;;;;;5067295;27;98588;-78
2024/01/28 10:09:24;;;;;;;5.30;4.90;;;;;;;;;;5048585;27;98965;-75
2024/01/28 10:11:51;;;;;;;14.50;7.00;;;;;;;;;;5047185;27;99939;-75
2024/01/28 10:14:17;;;;;;;7.72;5.72;;;;;;;;;;5049487;27;98956;-74
2024/01/28 10:16:48;;;;;;;15.48;6.53;;;;;;;;;;5050795;27;100248;-76
2024/01/28 10:19:14;;;;;;;10.38;5.07;;;;;;;;;;5066396;27;98147;-76
2024/01/28 10:21:42;;;;;;;17.55;6.07;;;;;;;;;;5066061;27;99054;-76
2024/01/28 10:24:10;;;;;;;17.00;5.38;;;;;;;;;;5064585;27;98944;-76
2024/01/28 10:26:37;;;;;;;9.38;4.72;;;;;;;;;;5065930;27;98147;-74
2024/01/28 10:29:06;;;;;;;7.80;4.50;;;;;;;;;;5066648;27;99374;-75
2024/01/28 10:31:33;;;;;;;12.32;6.22;;;;;;;;;;5066176;27;100234;-75
2024/01/28 10:33:59;;;;;;;17.52;5.95;;;;;;;;;;5066180;27;98336;-75
2024/01/28 10:36:26;;;;;;;13.25;5.25;;;;;;;;;;5068472;27;98572;-75
2024/01/28 10:38:56;;;;;;;11.82;4.80;;;;;;;;;;5066531;27;98805;-75
2024/01/28 10:41:23;;;;;;;6.78;4.22;;;;;;;;;;5052412;27;98488;-75
2024/01/28 10:43:57;;;;;;;10.18;5.18;;;;;;;;;;5064675;27;99058;-75
2024/01/28 10:46:29;;;;;;;8.05;4.78;;;;;;;;;;5066722;27;98381;-75
2024/01/28 10:49:00;;;;;;;12.48;4.97;;;;;;;;;;5065723;27;98859;-75
2024/01/28 10:51:27;;;;;;;9.07;4.18;;;;;;;;;;5063755;27;99875;-75
2024/01/28 10:53:54;;;;;;;5.90;4.10;;;;;;;;;;5066116;27;98737;-75
2024/01/28 10:56:21;;;;;;;5.20;4.68;;;;;;;;;;5066231;27;99423;-75
2024/01/28 10:58:48;;;;;;;8.10;4.38;;;;;;;;;;5068562;27;98036;-75
2024/01/28 11:01:15;;;;;;;10.70;4.65;;;;;;;;;;5066066;27;99665;-75
2024/01/28 11:03:41;;;;;;;7.95;4.38;;;;;;;;;;5065878;27;100784;-75
2024/01/28 11:06:08;;;;;;;8.95;3.95;;;;;;;;;;5063914;27;98347;-75
2024/01/28 11:08:34;;;;;;;6.53;4.40;;;;;;;;;;5075776;27;99589;-74
2024/01/28 11:11:01;;;;;;;10.07;3.70;;;;;;;;;;5066225;27;99873;-75
2024/01/28 11:13:27;;;;;;;12.10;4.75;;;;;;;;;;5064827;27;98496;-75
2024/01/28 11:15:54;;;;;;;5.38;4.88;;;;;;;;;;5063410;27;98595;-75
2024/01/28 11:18:29;;;;;;;7.40;4.45;;;;;;;;;;5068495;27;100839;-75
2024/01/28 11:20:55;;;;;;;12.02;4.45;;;;;;;;;;5059245;27;99223;-73
2024/01/28 11:23:22;;;;;;;8.73;4.13;;;;;;;;;;5072813;27;100013;-75
2024/01/28 11:25:51;;;;;;;10.77;3.55;;;;;;;;;;5071752;27;98506;-75
2024/01/28 11:28:18;;;;;;;9.75;3.85;;;;;;;;;;5071878;27;98473;-75
2024/01/28 11:30:46;;;;;;;10.07;3.63;;;;;;;;;;5071214;27;99882;-75
2024/01/28 11:33:13;;;;;;;8.95;4.43;;;;;;;;;;5069959;27;98292;-74
2024/01/28 11:35:42;;;;;;;10.80;4.20;;;;;;;;;;5067971;27;99871;-73
2024/01/28 11:38:14;;;;;;;7.88;4.10;;;;;;;;;;5067186;27;100008;-73
2024/01/28 11:40:43;;;;;;;4.82;4.38;;;;;;;;;;5064043;27;99583;-73
2024/01/28 11:43:12;;;;;;;10.65;4.70;;;;;;;;;;5065297;27;100043;-73
2024/01/28 11:45:39;;;;;;;11.57;4.10;;;;;;;;;;5066389;27;99811;-73
2024/01/28 11:48:09;;;;;;;8.50;4.78;;;;;;;;;;5064721;27;99910;-74
2024/01/28 11:50:38;;;;;;;5.85;4.43;;;;;;;;;;5065677;27;100033;-74
2024/01/28 11:53:05;;;;;;;8.55;4.53;;;;;;;;;;5065131;27;99875;-74
2024/01/28 11:55:34;;;;;;;6.45;4.35;;;;;;;;;;5066322;27;99298;-75
2024/01/28 11:58:01;;;;;;;3.85;3.55;;;;;;;;;;5064487;27;100446;-74
2024/01/28 12:00:27;;;;;;;14.32;5.00;;;;;;;;;;5068604;27;99659;-74
2024/01/28 12:02:54;;;;;;;9.80;5.20;;;;;;;;;;5066772;27;99708;-74
2024/01/28 12:05:21;;;;;;;8.25;4.70;;;;;;;;;;5063007;27;98608;-74
2024/01/28 12:07:49;;;;;;;7.53;3.88;;;;;;;;;;5067374;27;99447;-74
2024/01/28 12:10:16;;;;;;;11.10;4.30;;;;;;;;;;5066264;27;99770;-74
2024/01/28 12:12:43;;;;;;;10.05;4.03;;;;;;;;;;5066216;27;98681;-74
2024/01/28 12:15:12;;;;;;;4.28;3.83;;;;;;;;;;5065544;27;100097;-74
2024/01/28 12:17:39;;;;;;;3.80;3.50;;;;;;;;;;5067458;27;102061;-74
2024/01/28 12:20:06;;;;;;;5.85;3.83;;;;;;;;;;5065878;27;98317;-73
2024/01/28 12:22:39;;;;;;;12.25;4.15;;;;;;;;;;5066028;27;99568;-73
2024/01/28 12:25:07;;;;;;;7.25;4.15;;;;;;;;;;5065721;27;99890;-74
2024/01/28 12:27:34;;;;;;;7.15;4.35;;;;;;;;;;5065107;27;98517;-74
2024/01/28 12:30:01;;;;;;;9.20;6.47;;;;;;;;;;5060139;27;99937;-72
2024/01/28 12:32:27;;;;;;;6.53;3.45;;;;;;;;;;5061798;27;99293;-73
2024/01/28 12:34:56;;;;;;;8.70;3.40;;;;;;;;;;5057789;27;99863;-73
2024/01/28 12:37:24;;;;;;;3.17;2.88;;;;;;;;;;5059004;27;100100;-74
2024/01/28 12:39:52;;;;;;;12.63;3.40;;;;;;;;;;5059864;27;98450;-75
2024/01/28 12:42:18;;;;;;;6.85;3.08;;;;;;;;;;5059677;27;99768;-73
2024/01/28 12:44:45;;;;;;;4.68;2.83;;;;;;;;;;5061320;27;100114;-73
2024/01/28 12:47:11;;;;;;;3.17;2.97;;;;;;;;;;5061782;27;99232;-73
2024/01/28 12:49:38;;;;;;;7.63;3.58;;;;;;;;;;5060389;27;99956;-73
2024/01/28 12:52:05;;;;;;;2.95;2.75;;;;;;;;;;5059953;27;99055;-74
2024/01/28 12:54:31;;;;;;;5.60;3.72;;;;;;;;;;5059880;27;99615;-74
2024/01/28 12:56:58;;;;;;;5.60;3.20;;;;;;;;;;5061611;27;99821;-74
2024/01/28 12:59:24;;;;;;;5.53;3.05;;;;;;;;;;5062267;27;99500;-74
2024/01/28 13:01:51;;;;;;;3.08;2.72;;;;;;;;;;5043416;27;99701;-74
2024/01/28 13:04:18;;;;;;;8.88;3.30;;;;;;;;;;5060158;27;100798;-74
2024/01/28 13:06:44;;;;;;;3.00;2.65;;;;;;;;;;5064941;27;99461;-73
2024/01/28 13:09:13;;;;;;;5.22;2.55;;;;;;;;;;5063914;27;99848;-74
2024/01/28 13:11:40;;;;;;;7.20;3.33;;;;;;;;;;5061630;27;99774;-74
2024/01/28 13:14:06;;;;;;;3.67;2.88;;;;;;;;;;5059521;27;99855;-74
2024/01/28 13:16:33;;;;;;;5.55;2.90;;;;;;;;;;5059790;27;99026;-74
2024/01/28 13:18:59;;;;;;;5.32;3.28;;;;;;;;;;5057871;27;99814;-74
2024/01/28 13:21:26;;;;;;;7.82;4.18;;;;;;;;;;5062411;27;99543;-74
2024/01/28 13:23:53;;;;;;;5.15;3.25;;;;;;;;;;5060955;27;100763;-73
2024/01/28 13:26:21;;;;;;;5.75;2.70;;;;;;;;;;5059686;27;99270;-73
2024/01/28 13:28:48;;;;;;;3.78;2.63;;;;;;;;;;5063230;27;99454;-73
2024/01/28 13:31:14;;;;;;;4.32;3.00;;;;;;;;;;5061289;27;98983;-74
2024/01/28 13:33:41;;;;;;;6.93;3.40;;;;;;;;;;5062600;27;99543;-74
2024/01/28 13:36:08;;;;;;;7.25;3.15;;;;;;;;;;5063055;27;99812;-73
2024/01/28 13:38:34;;;;;;;5.30;3.03;;;;;;;;;;5060305;27;99558;-74
2024/01/28 13:41:01;;;;;;;5.07;2.78;;;;;;;;;;5061937;27;99739;-74
2024/01/28 13:43:33;;;;;;;3.83;3.10;;;;;;;;;;5060360;27;100227;-74
2024/01/28 13:46:03;;;;;;;7.13;2.78;;;;;;;;;;5059176;27;99736;-74
2024/01/28 13:48:29;;;;;;;3.58;2.88;;;;;;;;;;5061738;27;98469;-73
2024/01/28 13:50:56;;;;;;;9.00;2.97;;;;;;;;;;5063036;27;100258;-74
2024/01/28 13:53:23;;;;;;;4.75;3.15;;;;;;;;;;5059717;27;100071;-74
2024/01/28 13:55:49;;;;;;;7.40;3.30;;;;;;;;;;5061111;27;98508;-74
2024/01/28 13:58:16;;;;;;;7.05;3.35;;;;;;;;;;5060619;27;98712;-74
2024/01/28 14:00:43;;;;;;;8.85;3.05;;;;;;;;;;5060537;27;99518;-74
2024/01/28 14:03:11;;;;;;;3.95;2.92;;;;;;;;;;5055567;27;100553;-73
2024/01/28 14:05:41;;;;;;;3.10;2.80;;;;;;;;;;5055487;27;100129;-73
2024/01/28 14:08:08;;;;;;;5.85;3.28;;;;;;;;;;5055095;27;100048;-74
2024/01/28 14:10:37;;;;;;;5.75;3.55;;;;;;;;;;5058086;27;100289;-73
2024/01/28 14:13:04;;;;;;;3.78;3.47;;;;;;;;;;5062741;27;98330;-73
2024/01/28 14:15:32;;;;;;;9.68;2.95;;;;;;;;;;5057688;27;99977;-75
2024/01/28 14:17:58;;;;;;;7.68;3.25;;;;;;;;;;5059407;27;99280;-74
2024/01/28 14:20:24;;;;;;;9.15;3.00;;;;;;;;;;5060552;27;99572;-73
2024/01/28 14:22:51;;;;;;;6.55;3.95;;;;;;;;;;5056040;27;99660;-73
2024/01/28 14:25:19;;;;;;;4.43;3.47;;;;;;;;;;5061576;27;98216;-73
2024/01/28 14:27:46;;;;;;;6.60;3.42;;;;;;;;;;5060104;27;99415;-73
2024/01/28 14:30:13;;;;;;;4.32;3.00;;;;;;;;;;5057432;27;99067;-73